sensor_id;sensor_type;location;lat;lon;timestamp;temperature;humidity
73121;DHT22;61307;49.628;-1.624;2023-09-19T00:14:39;21.00;59.10
73121;DHT22;61307;49.628;-1.624;2023-09-19T00:21:21;20.90;58.90
73121;DHT22;61307;49.628;-1.624;2023-09-19T00:27:56;21.00;58.90
73121;DHT22;61307;49.628;-1.624;2023-09-19T00:37:28;20.90;58.90
73121;DHT22;61307;49.628;-1.624;2023-09-19T03:40:19;20.90;59.20
73121;DHT22;61307;49.628;-1.624;2023-09-19T03:42:47;20.90;59.20
73121;DHT22;61307;49.628;-1.624;2023-09-19T04:33:10;20.80;59.60
73121;DHT22;61307;49.628;-1.624;2023-09-19T04:55:45;20.80;59.90
73121;DHT22;61307;49.628;-1.624;2023-09-19T07:06:03;21.00;61.10
73121;DHT22;61307;49.628;-1.624;2023-09-19T07:08:38;21.00;61.10
73121;DHT22;61307;49.628;-1.624;2023-09-19T07:11:08;21.10;61.20
73121;DHT22;61307;49.628;-1.624;2023-09-19T07:13:39;21.10;61.20
73121;DHT22;61307;49.628;-1.624;2023-09-19T07:16:07;21.20;61.30
73121;DHT22;61307;49.628;-1.624;2023-09-19T07:18:52;21.10;61.10
73121;DHT22;61307;49.628;-1.624;2023-09-19T07:21:22;21.10;61.10
73121;DHT22;61307;49.628;-1.624;2023-09-19T07:23:49;21.20;61.20
73121;DHT22;61307;49.628;-1.624;2023-09-19T07:26:17;21.20;61.30
73121;DHT22;61307;49.628;-1.624;2023-09-19T07:28:44;21.30;61.40
73121;DHT22;61307;49.628;-1.624;2023-09-19T07:31:14;21.30;61.40
73121;DHT22;61307;49.628;-1.624;2023-09-19T07:33:53;21.40;61.40
73121;DHT22;61307;49.628;-1.624;2023-09-19T07:36:22;21.40;61.20
73121;DHT22;61307;49.628;-1.624;2023-09-19T07:38:50;21.40;61.90
73121;DHT22;61307;49.628;-1.624;2023-09-19T07:48:07;21.50;60.90
73121;DHT22;61307;49.628;-1.624;2023-09-19T07:53:47;21.50;61.00
73121;DHT22;61307;49.628;-1.624;2023-09-19T07:56:26;21.50;61.10
73121;DHT22;61307;49.628;-1.624;2023-09-19T08:02:40;21.50;61.10
73121;DHT22;61307;49.628;-1.624;2023-09-19T08:08:41;21.60;61.10
73121;DHT22;61307;49.628;-1.624;2023-09-19T08:11:10;21.60;61.10
73121;DHT22;61307;49.628;-1.624;2023-09-19T08:13:42;21.50;61.00
73121;DHT22;61307;49.628;-1.624;2023-09-19T08:19:01;21.50;61.20
73121;DHT22;61307;49.628;-1.624;2023-09-19T08:21:28;21.60;61.40
73121;DHT22;61307;49.628;-1.624;2023-09-19T08:23:56;21.60;61.40
73121;DHT22;61307;49.628;-1.624;2023-09-19T08:26:26;21.60;61.50
73121;DHT22;61307;49.628;-1.624;2023-09-19T08:28:55;21.60;61.50
73121;DHT22;61307;49.628;-1.624;2023-09-19T08:31:23;21.50;61.40
73121;DHT22;61307;49.628;-1.624;2023-09-19T08:33:51;21.50;61.40
73121;DHT22;61307;49.628;-1.624;2023-09-19T08:36:22;21.50;61.40
73121;DHT22;61307;49.628;-1.624;2023-09-19T08:38:49;21.50;61.40
73121;DHT22;61307;49.628;-1.624;2023-09-19T08:41:17;21.60;61.60
73121;DHT22;61307;49.628;-1.624;2023-09-19T08:43:46;21.50;61.50
73121;DHT22;61307;49.628;-1.624;2023-09-19T08:46:15;21.60;61.60
73121;DHT22;61307;49.628;-1.624;2023-09-19T08:51:45;21.60;61.60
73121;DHT22;61307;49.628;-1.624;2023-09-19T08:54:22;21.60;61.60
73121;DHT22;61307;49.628;-1.624;2023-09-19T08:57:07;21.60;61.70
73121;DHT22;61307;49.628;-1.624;2023-09-19T08:59:42;21.60;61.80
73121;DHT22;61307;49.628;-1.624;2023-09-19T09:02:12;21.60;61.90
73121;DHT22;61307;49.628;-1.624;2023-09-19T09:07:24;21.70;62.10
73121;DHT22;61307;49.628;-1.624;2023-09-19T09:09:53;21.70;62.10
73121;DHT22;61307;49.628;-1.624;2023-09-19T09:12:24;21.70;62.10
73121;DHT22;61307;49.628;-1.624;2023-09-19T09:14:53;21.70;62.10
73121;DHT22;61307;49.628;-1.624;2023-09-19T09:17:46;21.70;62.10
73121;DHT22;61307;49.628;-1.624;2023-09-19T09:23:36;21.70;62.10
73121;DHT22;61307;49.628;-1.624;2023-09-19T09:26:11;21.70;62.10
73121;DHT22;61307;49.628;-1.624;2023-09-19T09:28:46;21.70;62.10
73121;DHT22;61307;49.628;-1.624;2023-09-19T09:31:24;21.70;62.90
73121;DHT22;61307;49.628;-1.624;2023-09-19T09:33:55;21.70;62.10
73121;DHT22;61307;49.628;-1.624;2023-09-19T09:36:36;21.70;62.10
73121;DHT22;61307;49.628;-1.624;2023-09-19T09:39:04;21.70;62.10
73121;DHT22;61307;49.628;-1.624;2023-09-19T09:41:50;21.70;62.10
73121;DHT22;61307;49.628;-1.624;2023-09-19T09:44:18;21.70;62.10
73121;DHT22;61307;49.628;-1.624;2023-09-19T09:46:48;21.70;62.10
73121;DHT22;61307;49.628;-1.624;2023-09-19T09:49:48;21.80;62.20
73121;DHT22;61307;49.628;-1.624;2023-09-19T09:52:20;21.80;62.20
73121;DHT22;61307;49.628;-1.624;2023-09-19T09:55:00;21.80;62.20
73121;DHT22;61307;49.628;-1.624;2023-09-19T09:57:59;21.80;62.20
73121;DHT22;61307;49.628;-1.624;2023-09-19T10:00:52;21.90;62.30
73121;DHT22;61307;49.628;-1.624;2023-09-19T10:04:00;21.80;62.20
73121;DHT22;61307;49.628;-1.624;2023-09-19T10:06:40;21.90;62.30
73121;DHT22;61307;49.628;-1.624;2023-09-19T10:09:14;21.90;62.20
73121;DHT22;61307;49.628;-1.624;2023-09-19T10:11:47;21.90;62.20
73121;DHT22;61307;49.628;-1.624;2023-09-19T10:14:20;21.90;62.20
73121;DHT22;61307;49.628;-1.624;2023-09-19T10:16:50;21.90;62.20
73121;DHT22;61307;49.628;-1.624;2023-09-19T10:19:30;21.90;62.20
73121;DHT22;61307;49.628;-1.624;2023-09-19T10:22:02;21.80;62.20
73121;DHT22;61307;49.628;-1.624;2023-09-19T10:24:30;21.80;62.10
73121;DHT22;61307;49.628;-1.624;2023-09-19T10:27:01;21.80;62.20
73121;DHT22;61307;49.628;-1.624;2023-09-19T10:29:32;21.80;62.20
73121;DHT22;61307;49.628;-1.624;2023-09-19T10:32:16;21.80;62.10
73121;DHT22;61307;49.628;-1.624;2023-09-19T10:34:47;21.80;62.20
73121;DHT22;61307;49.628;-1.624;2023-09-19T10:37:16;21.80;62.20
73121;DHT22;61307;49.628;-1.624;2023-09-19T10:39:56;21.80;62.20
73121;DHT22;61307;49.628;-1.624;2023-09-19T10:42:25;21.80;62.20
73121;DHT22;61307;49.628;-1.624;2023-09-19T10:44:55;21.80;62.20
73121;DHT22;61307;49.628;-1.624;2023-09-19T10:47:26;21.80;62.20
73121;DHT22;61307;49.628;-1.624;2023-09-19T10:49:55;21.80;62.10
73121;DHT22;61307;49.628;-1.624;2023-09-19T10:52:25;21.80;62.10
73121;DHT22;61307;49.628;-1.624;2023-09-19T10:55:17;21.80;62.20
73121;DHT22;61307;49.628;-1.624;2023-09-19T10:57:47;21.80;62.10
73121;DHT22;61307;49.628;-1.624;2023-09-19T11:00:29;21.80;62.20
73121;DHT22;61307;49.628;-1.624;2023-09-19T11:03:20;21.70;62.00
73121;DHT22;61307;49.628;-1.624;2023-09-19T11:06:10;21.80;62.10
73121;DHT22;61307;49.628;-1.624;2023-09-19T11:09:02;21.70;62.00
73121;DHT22;61307;49.628;-1.624;2023-09-19T11:11:49;21.70;62.10
73121;DHT22;61307;49.628;-1.624;2023-09-19T11:14:38;21.80;62.20
73121;DHT22;61307;49.628;-1.624;2023-09-19T11:17:33;21.70;62.10
73121;DHT22;61307;49.628;-1.624;2023-09-19T11:20:20;21.70;62.10
73121;DHT22;61307;49.628;-1.624;2023-09-19T11:23:29;21.70;62.10
73121;DHT22;61307;49.628;-1.624;2023-09-19T11:25:57;21.70;62.10
73121;DHT22;61307;49.628;-1.624;2023-09-19T11:28:32;21.70;62.10
73121;DHT22;61307;49.628;-1.624;2023-09-19T11:36:58;21.70;62.10
73121;DHT22;61307;49.628;-1.624;2023-09-19T11:39:29;21.70;62.10
73121;DHT22;61307;49.628;-1.624;2023-09-19T11:45:32;21.70;62.10
73121;DHT22;61307;49.628;-1.624;2023-09-19T11:47:52;21.70;62.10
73121;DHT22;61307;49.628;-1.624;2023-09-19T11:50:20;21.70;62.10
73121;DHT22;61307;49.628;-1.624;2023-09-19T11:52:49;21.70;62.10
73121;DHT22;61307;49.628;-1.624;2023-09-19T11:55:22;21.70;62.10
73121;DHT22;61307;49.628;-1.624;2023-09-19T11:57:52;21.70;62.10
73121;DHT22;61307;49.628;-1.624;2023-09-19T12:00:22;21.70;62.10
73121;DHT22;61307;49.628;-1.624;2023-09-19T12:02:51;21.70;62.20
73121;DHT22;61307;49.628;-1.624;2023-09-19T12:08:14;21.80;62.80
73121;DHT22;61307;49.628;-1.624;2023-09-19T12:10:47;21.80;62.90
73121;DHT22;61307;49.628;-1.624;2023-09-19T12:16:33;21.80;62.50
73121;DHT22;61307;49.628;-1.624;2023-09-19T12:19:18;21.90;62.40
73121;DHT22;61307;49.628;-1.624;2023-09-19T12:25:22;22.00;62.40
73121;DHT22;61307;49.628;-1.624;2023-09-19T12:27:52;21.90;62.30
73121;DHT22;61307;49.628;-1.624;2023-09-19T12:30:42;21.90;62.30
73121;DHT22;61307;49.628;-1.624;2023-09-19T12:33:30;21.90;62.30
73121;DHT22;61307;49.628;-1.624;2023-09-19T12:36:19;21.90;62.30
73121;DHT22;61307;49.628;-1.624;2023-09-19T12:39:22;21.90;62.30
73121;DHT22;61307;49.628;-1.624;2023-09-19T12:41:49;21.90;62.30
73121;DHT22;61307;49.628;-1.624;2023-09-19T12:44:20;22.00;62.40
73121;DHT22;61307;49.628;-1.624;2023-09-19T12:46:50;22.00;62.40
73121;DHT22;61307;49.628;-1.624;2023-09-19T12:49:20;22.00;62.40
73121;DHT22;61307;49.628;-1.624;2023-09-19T12:51:49;22.00;62.40
73121;DHT22;61307;49.628;-1.624;2023-09-19T12:57:24;22.10;62.50
73121;DHT22;61307;49.628;-1.624;2023-09-19T12:59:54;22.00;62.30
73121;DHT22;61307;49.628;-1.624;2023-09-19T13:02:22;22.10;62.50
73121;DHT22;61307;49.628;-1.624;2023-09-19T13:04:55;22.20;62.50
73121;DHT22;61307;49.628;-1.624;2023-09-19T13:07:44;22.20;62.50
73121;DHT22;61307;49.628;-1.624;2023-09-19T13:10:13;22.10;62.40
73121;DHT22;61307;49.628;-1.624;2023-09-19T13:12:43;22.10;62.30
73121;DHT22;61307;49.628;-1.624;2023-09-19T13:15:15;22.20;62.40
73121;DHT22;61307;49.628;-1.624;2023-09-19T13:17:47;22.10;62.30
73121;DHT22;61307;49.628;-1.624;2023-09-19T13:20:23;22.20;62.40
73121;DHT22;61307;49.628;-1.624;2023-09-19T13:22:55;22.20;62.50
73121;DHT22;61307;49.628;-1.624;2023-09-19T13:25:27;22.30;62.40
73121;DHT22;61307;49.628;-1.624;2023-09-19T13:27:57;22.30;62.50
73121;DHT22;61307;49.628;-1.624;2023-09-19T13:30:27;22.30;62.30
73121;DHT22;61307;49.628;-1.624;2023-09-19T13:33:08;22.30;62.30
73121;DHT22;61307;49.628;-1.624;2023-09-19T13:35:36;22.30;62.20
73121;DHT22;61307;49.628;-1.624;2023-09-19T13:38:07;22.40;62.20
73121;DHT22;61307;49.628;-1.624;2023-09-19T13:40:38;22.30;62.10
73121;DHT22;61307;49.628;-1.624;2023-09-19T13:43:26;22.30;62.00
73121;DHT22;61307;49.628;-1.624;2023-09-19T13:46:03;22.40;62.10
73121;DHT22;61307;49.628;-1.624;2023-09-19T13:48:31;22.40;62.00
73121;DHT22;61307;49.628;-1.624;2023-09-19T13:51:02;22.40;62.10
73121;DHT22;61307;49.628;-1.624;2023-09-19T13:53:30;22.40;62.00
73121;DHT22;61307;49.628;-1.624;2023-09-19T13:55:58;22.50;62.10
73121;DHT22;61307;49.628;-1.624;2023-09-19T13:58:48;22.50;62.00
73121;DHT22;61307;49.628;-1.624;2023-09-19T14:01:16;22.50;62.10
73121;DHT22;61307;49.628;-1.624;2023-09-19T14:03:44;22.50;62.00
73121;DHT22;61307;49.628;-1.624;2023-09-19T14:06:16;22.50;61.90
73121;DHT22;61307;49.628;-1.624;2023-09-19T14:08:44;22.50;61.80
73121;DHT22;61307;49.628;-1.624;2023-09-19T14:11:13;22.50;61.70
73121;DHT22;61307;49.628;-1.624;2023-09-19T14:13:42;22.50;61.70
73121;DHT22;61307;49.628;-1.624;2023-09-19T14:16:13;22.50;61.70
73121;DHT22;61307;49.628;-1.624;2023-09-19T14:18:42;22.50;61.80
73121;DHT22;61307;49.628;-1.624;2023-09-19T14:21:10;22.40;61.80
73121;DHT22;61307;49.628;-1.624;2023-09-19T14:23:38;22.50;62.00
73121;DHT22;61307;49.628;-1.624;2023-09-19T14:26:05;22.40;61.90
73121;DHT22;61307;49.628;-1.624;2023-09-19T14:28:33;22.40;61.90
73121;DHT22;61307;49.628;-1.624;2023-09-19T14:31:05;22.40;61.90
73121;DHT22;61307;49.628;-1.624;2023-09-19T14:33:32;22.50;62.00
73121;DHT22;61307;49.628;-1.624;2023-09-19T14:36:05;22.50;62.10
73121;DHT22;61307;49.628;-1.624;2023-09-19T14:38:34;22.50;62.00
73121;DHT22;61307;49.628;-1.624;2023-09-19T14:42:20;22.50;62.10
73121;DHT22;61307;49.628;-1.624;2023-09-19T14:44:23;22.40;62.00
73121;DHT22;61307;49.628;-1.624;2023-09-19T14:47:14;22.50;62.20
73121;DHT22;61307;49.628;-1.624;2023-09-19T14:52:50;22.50;62.30
73121;DHT22;61307;49.628;-1.624;2023-09-19T14:55:23;22.50;62.40
73121;DHT22;61307;49.628;-1.624;2023-09-19T14:57:55;22.50;62.50
73121;DHT22;61307;49.628;-1.624;2023-09-19T15:00:25;22.50;62.50
73121;DHT22;61307;49.628;-1.624;2023-09-19T15:02:53;22.50;62.40
73121;DHT22;61307;49.628;-1.624;2023-09-19T15:05:24;22.50;62.50
73121;DHT22;61307;49.628;-1.624;2023-09-19T15:07:53;22.50;62.50
73121;DHT22;61307;49.628;-1.624;2023-09-19T15:10:49;22.50;62.60
73121;DHT22;61307;49.628;-1.624;2023-09-19T15:23:28;22.50;62.60
73121;DHT22;61307;49.628;-1.624;2023-09-19T15:25:57;22.50;62.70
73121;DHT22;61307;49.628;-1.624;2023-09-19T15:31:11;22.50;62.60
73121;DHT22;61307;49.628;-1.624;2023-09-19T15:36:28;22.50;62.80
73121;DHT22;61307;49.628;-1.624;2023-09-19T15:39:01;22.50;62.80
73121;DHT22;61307;49.628;-1.624;2023-09-19T15:41:32;22.50;62.90
73121;DHT22;61307;49.628;-1.624;2023-09-19T15:44:04;22.50;62.90
73121;DHT22;61307;49.628;-1.624;2023-09-19T15:47:03;22.50;62.90
73121;DHT22;61307;49.628;-1.624;2023-09-19T15:49:31;22.50;62.90
73121;DHT22;61307;49.628;-1.624;2023-09-19T15:51:58;22.50;62.90
73121;DHT22;61307;49.628;-1.624;2023-09-19T15:54:42;22.50;62.90
73121;DHT22;61307;49.628;-1.624;2023-09-19T16:00:07;22.50;62.90
73121;DHT22;61307;49.628;-1.624;2023-09-19T16:02:54;22.50;62.90
73121;DHT22;61307;49.628;-1.624;2023-09-19T16:05:22;22.40;63.00
73121;DHT22;61307;49.628;-1.624;2023-09-19T16:07:49;22.40;63.10
73121;DHT22;61307;49.628;-1.624;2023-09-19T16:10:18;22.50;63.20
73121;DHT22;61307;49.628;-1.624;2023-09-19T16:12:45;22.50;63.30
73121;DHT22;61307;49.628;-1.624;2023-09-19T16:15:12;22.40;63.20
73121;DHT22;61307;49.628;-1.624;2023-09-19T16:17:41;22.40;63.40
73121;DHT22;61307;49.628;-1.624;2023-09-19T16:20:09;22.50;63.50
73121;DHT22;61307;49.628;-1.624;2023-09-19T16:22:38;22.50;63.60
73121;DHT22;61307;49.628;-1.624;2023-09-19T16:25:07;22.50;63.60
73121;DHT22;61307;49.628;-1.624;2023-09-19T16:27:39;22.50;63.60
73121;DHT22;61307;49.628;-1.624;2023-09-19T16:30:08;22.50;63.70
73121;DHT22;61307;49.628;-1.624;2023-09-19T16:32:40;22.50;63.60
73121;DHT22;61307;49.628;-1.624;2023-09-19T16:35:07;22.50;63.70
73121;DHT22;61307;49.628;-1.624;2023-09-19T16:37:37;22.60;63.90
73121;DHT22;61307;49.628;-1.624;2023-09-19T16:40:06;22.50;63.70
73121;DHT22;61307;49.628;-1.624;2023-09-19T16:42:34;22.50;63.70
73121;DHT22;61307;49.628;-1.624;2023-09-19T16:45:06;22.60;64.60
73121;DHT22;61307;49.628;-1.624;2023-09-19T16:47:34;22.60;63.90
73121;DHT22;61307;49.628;-1.624;2023-09-19T16:50:01;22.60;64.00
73121;DHT22;61307;49.628;-1.624;2023-09-19T16:52:30;22.60;64.10
73121;DHT22;61307;49.628;-1.624;2023-09-19T16:55:00;22.60;64.00
73121;DHT22;61307;49.628;-1.624;2023-09-19T16:57:28;22.70;64.30
73121;DHT22;61307;49.628;-1.624;2023-09-19T17:00:38;22.80;64.70
73121;DHT22;61307;49.628;-1.624;2023-09-19T17:03:09;22.80;63.90
73121;DHT22;61307;49.628;-1.624;2023-09-19T17:05:39;22.70;63.80
73121;DHT22;61307;49.628;-1.624;2023-09-19T17:15:09;22.60;64.20
73121;DHT22;61307;49.628;-1.624;2023-09-19T17:27:38;22.50;64.30
73121;DHT22;61307;49.628;-1.624;2023-09-19T17:30:08;22.40;64.30
73121;DHT22;61307;49.628;-1.624;2023-09-19T17:32:44;22.40;64.30
73121;DHT22;61307;49.628;-1.624;2023-09-19T17:35:51;22.40;64.40
73121;DHT22;61307;49.628;-1.624;2023-09-19T17:38:20;22.40;64.50
73121;DHT22;61307;49.628;-1.624;2023-09-19T17:41:06;22.30;64.40
73121;DHT22;61307;49.628;-1.624;2023-09-19T17:47:06;22.30;64.60
73121;DHT22;61307;49.628;-1.624;2023-09-19T17:49:37;22.30;64.60
73121;DHT22;61307;49.628;-1.624;2023-09-19T17:55:01;22.30;64.70
73121;DHT22;61307;49.628;-1.624;2023-09-19T17:57:30;22.40;64.70
73121;DHT22;61307;49.628;-1.624;2023-09-19T17:59:58;22.30;64.60
73121;DHT22;61307;49.628;-1.624;2023-09-19T18:02:34;22.30;64.60
73121;DHT22;61307;49.628;-1.624;2023-09-19T18:05:05;22.30;64.70
73121;DHT22;61307;49.628;-1.624;2023-09-19T18:07:53;22.20;64.50
73121;DHT22;61307;49.628;-1.624;2023-09-19T18:10:21;22.20;64.50
73121;DHT22;61307;49.628;-1.624;2023-09-19T18:12:53;22.10;64.40
73121;DHT22;61307;49.628;-1.624;2023-09-19T18:15:24;22.20;64.80
73121;DHT22;61307;49.628;-1.624;2023-09-19T18:18:07;22.20;64.80
73121;DHT22;61307;49.628;-1.624;2023-09-19T18:20:39;22.20;65.00
73121;DHT22;61307;49.628;-1.624;2023-09-19T18:23:11;22.10;64.90
73121;DHT22;61307;49.628;-1.624;2023-09-19T18:25:39;22.00;64.90
73121;DHT22;61307;49.628;-1.624;2023-09-19T18:28:09;22.10;65.10
73121;DHT22;61307;49.628;-1.624;2023-09-19T18:30:48;22.10;65.20
73121;DHT22;61307;49.628;-1.624;2023-09-19T18:33:17;22.10;65.30
73121;DHT22;61307;49.628;-1.624;2023-09-19T18:35:50;22.00;65.20
73121;DHT22;61307;49.628;-1.624;2023-09-19T18:38:18;22.10;66.20
73121;DHT22;61307;49.628;-1.624;2023-09-19T18:40:47;22.00;65.40
73121;DHT22;61307;49.628;-1.624;2023-09-19T18:43:17;22.00;65.60
73121;DHT22;61307;49.628;-1.624;2023-09-19T18:45:55;22.00;65.70
73121;DHT22;61307;49.628;-1.624;2023-09-19T18:48:24;22.10;65.50
73121;DHT22;61307;49.628;-1.624;2023-09-19T18:50:54;22.10;65.40
73121;DHT22;61307;49.628;-1.624;2023-09-19T18:53:21;22.00;65.30
73121;DHT22;61307;49.628;-1.624;2023-09-19T18:56:02;22.00;65.40
73121;DHT22;61307;49.628;-1.624;2023-09-19T18:58:29;22.00;65.50
73121;DHT22;61307;49.628;-1.624;2023-09-19T19:01:00;22.00;65.50
73121;DHT22;61307;49.628;-1.624;2023-09-19T19:03:29;22.00;65.70
73121;DHT22;61307;49.628;-1.624;2023-09-19T19:05:57;21.90;65.60
73121;DHT22;61307;49.628;-1.624;2023-09-19T19:08:24;21.90;65.80
73121;DHT22;61307;49.628;-1.624;2023-09-19T19:10:51;21.90;65.80
73121;DHT22;61307;49.628;-1.624;2023-09-19T19:13:19;21.90;65.80
73121;DHT22;61307;49.628;-1.624;2023-09-19T19:15:46;21.90;65.80
73121;DHT22;61307;49.628;-1.624;2023-09-19T19:18:13;21.90;65.80
73121;DHT22;61307;49.628;-1.624;2023-09-19T19:20:42;21.90;65.80
73121;DHT22;61307;49.628;-1.624;2023-09-19T19:23:09;21.90;65.90
73121;DHT22;61307;49.628;-1.624;2023-09-19T19:25:45;21.80;65.80
73121;DHT22;61307;49.628;-1.624;2023-09-19T19:28:12;21.80;65.80
73121;DHT22;61307;49.628;-1.624;2023-09-19T19:30:43;21.80;65.90
73121;DHT22;61307;49.628;-1.624;2023-09-19T19:33:10;21.90;66.00
73121;DHT22;61307;49.628;-1.624;2023-09-19T19:35:38;21.80;65.90
73121;DHT22;61307;49.628;-1.624;2023-09-19T19:38:07;21.80;65.90
73121;DHT22;61307;49.628;-1.624;2023-09-19T19:40:35;21.80;65.90
73121;DHT22;61307;49.628;-1.624;2023-09-19T19:43:11;21.80;65.90
73121;DHT22;61307;49.628;-1.624;2023-09-19T19:45:38;21.90;66.10
73121;DHT22;61307;49.628;-1.624;2023-09-19T19:48:06;21.70;65.90
73121;DHT22;61307;49.628;-1.624;2023-09-19T19:50:38;21.80;66.00
73121;DHT22;61307;49.628;-1.624;2023-09-19T19:53:08;21.70;65.90
73121;DHT22;61307;49.628;-1.624;2023-09-19T19:55:35;21.80;66.00
73121;DHT22;61307;49.628;-1.624;2023-09-19T19:58:05;21.70;65.90
73121;DHT22;61307;49.628;-1.624;2023-09-19T20:00:33;21.70;65.90
73121;DHT22;61307;49.628;-1.624;2023-09-19T20:03:03;21.70;65.90
73121;DHT22;61307;49.628;-1.624;2023-09-19T20:05:30;21.80;66.00
73121;DHT22;61307;49.628;-1.624;2023-09-19T20:07:58;21.70;65.90
73121;DHT22;61307;49.628;-1.624;2023-09-19T20:10:26;21.70;65.90
73121;DHT22;61307;49.628;-1.624;2023-09-19T20:12:53;21.70;66.00
73121;DHT22;61307;49.628;-1.624;2023-09-19T20:15:21;21.70;66.00
73121;DHT22;61307;49.628;-1.624;2023-09-19T20:17:50;21.70;66.00
73121;DHT22;61307;49.628;-1.624;2023-09-19T20:20:18;21.70;66.00
73121;DHT22;61307;49.628;-1.624;2023-09-19T20:22:47;21.70;66.00
73121;DHT22;61307;49.628;-1.624;2023-09-19T20:25:15;21.70;66.00
73121;DHT22;61307;49.628;-1.624;2023-09-19T20:27:59;21.70;66.00
73121;DHT22;61307;49.628;-1.624;2023-09-19T20:30:27;21.60;65.90
73121;DHT22;61307;49.628;-1.624;2023-09-19T20:33:31;21.70;66.10
73121;DHT22;61307;49.628;-1.624;2023-09-19T20:36:14;21.70;66.10
73121;DHT22;61307;49.628;-1.624;2023-09-19T20:38:41;21.70;66.10
73121;DHT22;61307;49.628;-1.624;2023-09-19T20:41:08;21.70;66.10
73121;DHT22;61307;49.628;-1.624;2023-09-19T20:43:37;21.70;66.90
73121;DHT22;61307;49.628;-1.624;2023-09-19T20:46:06;21.70;66.10
73121;DHT22;61307;49.628;-1.624;2023-09-19T20:48:34;21.60;66.00
73121;DHT22;61307;49.628;-1.624;2023-09-19T20:51:07;21.70;66.20
73121;DHT22;61307;49.628;-1.624;2023-09-19T20:53:36;21.70;66.20
73121;DHT22;61307;49.628;-1.624;2023-09-19T20:56:04;21.70;66.20
73121;DHT22;61307;49.628;-1.624;2023-09-19T20:58:32;21.70;66.30
73121;DHT22;61307;49.628;-1.624;2023-09-19T21:01:04;21.60;66.10
73121;DHT22;61307;49.628;-1.624;2023-09-19T21:03:32;21.60;66.10
73121;DHT22;61307;49.628;-1.624;2023-09-19T21:06:01;21.70;66.30
73121;DHT22;61307;49.628;-1.624;2023-09-19T21:08:29;21.60;66.10
73121;DHT22;61307;49.628;-1.624;2023-09-19T21:10:57;21.60;66.20
73121;DHT22;61307;49.628;-1.624;2023-09-19T21:13:25;21.60;66.20
73121;DHT22;61307;49.628;-1.624;2023-09-19T21:15:53;21.60;66.20
73121;DHT22;61307;49.628;-1.624;2023-09-19T21:18:23;21.60;66.20
73121;DHT22;61307;49.628;-1.624;2023-09-19T21:20:50;21.60;66.20
73121;DHT22;61307;49.628;-1.624;2023-09-19T21:23:17;21.70;66.30
73121;DHT22;61307;49.628;-1.624;2023-09-19T21:25:53;21.50;66.10
73121;DHT22;61307;49.628;-1.624;2023-09-19T21:28:20;21.60;66.30
73121;DHT22;61307;49.628;-1.624;2023-09-19T21:30:57;21.60;66.30
73121;DHT22;61307;49.628;-1.624;2023-09-19T21:33:27;21.60;66.30
73121;DHT22;61307;49.628;-1.624;2023-09-19T21:35:55;21.60;66.30
73121;DHT22;61307;49.628;-1.624;2023-09-19T21:38:22;21.50;66.10
73121;DHT22;61307;49.628;-1.624;2023-09-19T21:40:50;21.60;67.10
73121;DHT22;61307;49.628;-1.624;2023-09-19T21:43:17;21.60;66.30
73121;DHT22;61307;49.628;-1.624;2023-09-19T21:45:45;21.60;66.30
73121;DHT22;61307;49.628;-1.624;2023-09-19T21:48:12;21.60;66.30
73121;DHT22;61307;49.628;-1.624;2023-09-19T21:50:41;21.50;66.20
73121;DHT22;61307;49.628;-1.624;2023-09-19T21:53:31;21.50;66.20
73121;DHT22;61307;49.628;-1.624;2023-09-19T21:56:00;21.60;66.40
73121;DHT22;61307;49.628;-1.624;2023-09-19T21:58:28;21.60;66.40
73121;DHT22;61307;49.628;-1.624;2023-09-19T22:00:57;21.60;66.40
73121;DHT22;61307;49.628;-1.624;2023-09-19T22:03:33;21.50;66.30
73121;DHT22;61307;49.628;-1.624;2023-09-19T22:06:04;21.60;66.30
73121;DHT22;61307;49.628;-1.624;2023-09-19T22:08:32;21.50;66.30
73121;DHT22;61307;49.628;-1.624;2023-09-19T22:11:00;21.60;66.40
73121;DHT22;61307;49.628;-1.624;2023-09-19T22:13:28;21.60;66.40
73121;DHT22;61307;49.628;-1.624;2023-09-19T22:15:57;21.50;66.30
73121;DHT22;61307;49.628;-1.624;2023-09-19T22:18:25;21.60;66.40
73121;DHT22;61307;49.628;-1.624;2023-09-19T22:20:53;21.60;66.40
73121;DHT22;61307;49.628;-1.624;2023-09-19T22:23:26;21.50;66.30
73121;DHT22;61307;49.628;-1.624;2023-09-19T22:25:58;21.50;66.30
73121;DHT22;61307;49.628;-1.624;2023-09-19T22:28:30;21.60;66.40
73121;DHT22;61307;49.628;-1.624;2023-09-19T22:30:59;21.50;66.30
73121;DHT22;61307;49.628;-1.624;2023-09-19T22:33:27;21.50;66.30
73121;DHT22;61307;49.628;-1.624;2023-09-19T22:35:55;21.50;66.40
73121;DHT22;61307;49.628;-1.624;2023-09-19T22:38:24;21.50;66.30
73121;DHT22;61307;49.628;-1.624;2023-09-19T22:40:54;21.50;66.40
73121;DHT22;61307;49.628;-1.624;2023-09-19T22:43:23;21.50;66.30
73121;DHT22;61307;49.628;-1.624;2023-09-19T22:45:54;21.50;66.30
73121;DHT22;61307;49.628;-1.624;2023-09-19T22:48:22;21.50;66.30
73121;DHT22;61307;49.628;-1.624;2023-09-19T22:50:52;21.50;66.40
73121;DHT22;61307;49.628;-1.624;2023-09-19T22:53:22;21.50;66.40
73121;DHT22;61307;49.628;-1.624;2023-09-19T22:55:52;21.50;66.40
73121;DHT22;61307;49.628;-1.624;2023-09-19T22:58:22;21.50;66.40
73121;DHT22;61307;49.628;-1.624;2023-09-19T23:00:49;21.50;66.40
73121;DHT22;61307;49.628;-1.624;2023-09-19T23:03:16;21.50;66.40
73121;DHT22;61307;49.628;-1.624;2023-09-19T23:05:48;21.50;66.40
73121;DHT22;61307;49.628;-1.624;2023-09-19T23:08:15;21.40;66.30
73121;DHT22;61307;49.628;-1.624;2023-09-19T23:10:44;21.50;66.40
73121;DHT22;61307;49.628;-1.624;2023-09-19T23:13:17;21.40;66.30
73121;DHT22;61307;49.628;-1.624;2023-09-19T23:19:03;21.40;66.40
73121;DHT22;61307;49.628;-1.624;2023-09-19T23:21:43;21.50;66.50
73121;DHT22;61307;49.628;-1.624;2023-09-19T23:24:13;21.50;66.50
73121;DHT22;61307;49.628;-1.624;2023-09-19T23:26:54;21.50;66.50
73121;DHT22;61307;49.628;-1.624;2023-09-19T23:29:32;21.50;66.50
73121;DHT22;61307;49.628;-1.624;2023-09-19T23:32:00;21.50;66.50
73121;DHT22;61307;49.628;-1.624;2023-09-19T23:34:31;21.40;66.40
73121;DHT22;61307;49.628;-1.624;2023-09-19T23:37:00;21.50;66.50
73121;DHT22;61307;49.628;-1.624;2023-09-19T23:39:27;21.40;66.40
73121;DHT22;61307;49.628;-1.624;2023-09-19T23:41:55;21.50;66.50
73121;DHT22;61307;49.628;-1.624;2023-09-19T23:44:24;21.40;66.40
73121;DHT22;61307;49.628;-1.624;2023-09-19T23:46:53;21.50;66.50
73121;DHT22;61307;49.628;-1.624;2023-09-19T23:49:22;21.40;66.40
73121;DHT22;61307;49.628;-1.624;2023-09-19T23:51:51;21.50;66.50
73121;DHT22;61307;49.628;-1.624;2023-09-19T23:54:19;21.50;66.50
73121;DHT22;61307;49.628;-1.624;2023-09-19T23:56:51;21.50;66.60
73121;DHT22;61307;49.628;-1.624;2023-09-19T23:59:19;21.50;66.50
